createdAt,value
2023-03-02T00:02:06.203Z,62.55
2023-03-02T00:06:11.026Z,62.54
2023-03-02T00:10:14.110Z,62.53
2023-03-02T00:14:17.108Z,62.58
2023-03-02T00:18:20.130Z,62.59
2023-03-02T00:22:24.438Z,62.14
2023-03-02T00:26:27.561Z,62.52
2023-03-02T00:30:30.585Z,62.40
2023-03-02T00:34:33.875Z,62.21
2023-03-02T00:38:38.768Z,62.53
2023-03-02T00:42:43.223Z,62.47
2023-03-02T00:46:47.129Z,62.55
2023-03-02T00:50:50.224Z,62.69
2023-03-02T00:54:54.568Z,62.15
2023-03-02T00:58:57.673Z,62.34
2023-03-02T01:03:00.944Z,62.06
2023-03-02T01:07:06.884Z,62.46
2023-03-02T01:11:16.008Z,62.50
2023-03-02T01:15:19.304Z,62.39
2023-03-02T01:19:22.289Z,62.29
2023-03-02T01:23:25.344Z,62.15
2023-03-02T01:27:29.684Z,62.08
2023-03-02T01:31:33.090Z,61.66
2023-03-02T01:35:36.188Z,62.21
2023-03-02T01:39:39.367Z,62.17
2023-03-02T01:43:43.996Z,62.35
2023-03-02T01:47:47.061Z,61.85
2023-03-02T01:51:54.845Z,61.68
2023-03-02T01:55:58.993Z,61.25
2023-03-02T02:00:08.896Z,61.47
2023-03-02T02:04:15.272Z,61.58
2023-03-02T02:08:18.811Z,61.82
2023-03-02T02:12:23.748Z,61.78
2023-03-02T02:16:30.009Z,61.95
2023-03-02T02:20:38.297Z,61.99
2023-03-02T02:24:45.201Z,61.86
2023-03-02T02:28:57.828Z,62.02
2023-03-02T02:33:03.772Z,61.86
2023-03-02T02:37:12.972Z,61.92
2023-03-02T02:41:21.730Z,61.73
2023-03-02T02:45:29.411Z,61.81
2023-03-02T02:49:36.791Z,61.93
2023-03-02T02:53:45.096Z,62.02
2023-03-02T02:57:48.547Z,62.45
2023-03-02T03:01:54.073Z,62.42
2023-03-02T03:05:57.727Z,62.50
2023-03-02T03:10:09.876Z,62.80
2023-03-02T03:14:16.468Z,62.62
2023-03-02T03:18:25.452Z,62.67
2023-03-02T03:22:28.496Z,62.66
2023-03-02T03:26:32.857Z,62.61
2023-03-02T03:30:36.158Z,62.53
2023-03-02T03:34:41.681Z,62.49
2023-03-02T03:38:58.346Z,62.48
2023-03-02T03:43:01.847Z,62.40
2023-03-02T03:47:05.157Z,62.41
2023-03-02T03:51:10.652Z,62.43
2023-03-02T03:55:14.722Z,62.48
2023-03-02T03:59:22.567Z,62.37
2023-03-02T04:03:34.876Z,62.44
2023-03-02T04:07:42.407Z,62.37
2023-03-02T04:11:47.441Z,62.39
2023-03-02T04:15:50.934Z,62.24
2023-03-02T04:19:53.999Z,62.34
2023-03-02T04:23:58.610Z,62.17
2023-03-02T04:28:01.862Z,62.27
2023-03-02T04:32:10.224Z,62.12
2023-03-02T04:36:15.415Z,61.96
2023-03-02T04:40:20.952Z,61.93
2023-03-02T04:44:24.064Z,61.88
2023-03-02T04:48:27.486Z,62.19
2023-03-02T04:52:31.241Z,62.21
2023-03-02T04:56:36.002Z,62.24
2023-03-02T05:00:39.001Z,62.21
2023-03-02T05:04:42.498Z,62.18
2023-03-02T05:08:45.965Z,62.17
2023-03-02T05:12:58.157Z,62.29
2023-03-02T05:17:01.310Z,62.51
2023-03-02T05:21:04.839Z,62.42
2023-03-02T05:25:08.814Z,62.68
2023-03-02T05:29:13.297Z,62.83
2023-03-02T05:33:16.956Z,62.25
2023-03-02T05:37:20.051Z,62.81
2023-03-02T05:41:23.027Z,63.05
2023-03-02T05:45:29.452Z,63.01
2023-03-02T05:49:32.686Z,63.18
2023-03-02T05:53:35.820Z,63.33
2023-03-02T05:57:38.791Z,63.62
2023-03-02T06:01:43.317Z,63.50
2023-03-02T06:05:50.709Z,64.29
2023-03-02T06:09:54.026Z,64.20
2023-03-02T06:13:57.424Z,64.40
2023-03-02T06:18:02.339Z,64.65
2023-03-02T06:22:05.357Z,64.80
2023-03-02T06:26:09.709Z,64.84
2023-03-02T06:30:16.216Z,64.71
2023-03-02T06:34:20.686Z,64.94
2023-03-02T06:38:24.248Z,64.88
2023-03-02T06:42:29.154Z,64.96
2023-03-02T06:46:32.340Z,65.12
2023-03-02T06:50:37.081Z,65.23
2023-03-02T06:54:40.140Z,65.02
2023-03-02T06:58:43.455Z,64.65
2023-03-02T07:02:46.761Z,64.76
2023-03-02T07:06:51.230Z,64.09
2023-03-02T07:10:54.202Z,63.53
2023-03-02T07:14:57.246Z,63.04
2023-03-02T07:19:00.218Z,62.82
2023-03-02T07:23:04.934Z,62.93
2023-03-02T07:27:07.944Z,62.64
2023-03-02T07:31:12.155Z,62.20
2023-03-02T07:35:17.076Z,61.57
2023-03-02T07:39:21.868Z,61.33
2023-03-02T07:43:26.074Z,61.11
2023-03-02T07:47:29.238Z,59.94
2023-03-02T07:51:32.765Z,60.26
2023-03-02T07:55:41.823Z,60.13
2023-03-02T07:59:45.298Z,60.27
2023-03-02T08:03:48.476Z,59.84
2023-03-02T08:07:51.427Z,59.92
2023-03-02T08:11:55.891Z,59.79
2023-03-02T08:16:01.543Z,59.78
2023-03-02T08:20:05.558Z,59.42
2023-03-02T08:24:09.232Z,59.02
2023-03-02T08:28:13.826Z,58.96
2023-03-02T08:32:16.834Z,59.00
2023-03-02T08:36:21.398Z,58.73
2023-03-02T08:40:24.354Z,59.17
2023-03-02T08:44:28.991Z,59.08
2023-03-02T08:48:31.944Z,58.97
2023-03-02T08:52:35.372Z,58.88
2023-03-02T08:56:40.314Z,58.68
2023-03-02T09:00:45.104Z,58.65
2023-03-02T09:04:48.148Z,58.25
2023-03-02T09:08:51.464Z,58.36
2023-03-02T09:12:54.427Z,58.55
2023-03-02T09:16:59.084Z,58.36
2023-03-02T09:21:02.375Z,58.28
2023-03-02T09:25:06.735Z,57.96
2023-03-02T09:29:10.136Z,57.73
2023-03-02T09:33:14.624Z,57.78
2023-03-02T09:37:17.694Z,57.87
2023-03-02T09:42:03.400Z,57.87
2023-03-02T09:46:17.213Z,57.63
2023-03-02T09:50:30.423Z,58.01
2023-03-02T09:54:33.831Z,57.44
2023-03-02T09:58:40.619Z,57.42
2023-03-02T10:02:49.157Z,57.07
2023-03-02T10:06:59.191Z,57.17
2023-03-02T10:11:09.520Z,57.00
2023-03-02T10:15:18.112Z,56.32
2023-03-02T10:19:26.449Z,57.29
2023-03-02T10:23:45.227Z,56.96
2023-03-02T10:27:51.880Z,57.14
2023-03-02T10:32:00.819Z,57.13
2023-03-02T10:36:07.274Z,57.07
2023-03-02T10:40:29.228Z,56.82
2023-03-02T10:44:37.576Z,56.25
2023-03-02T10:48:52.453Z,56.58
2023-03-02T10:53:00.275Z,56.46
2023-03-02T10:57:20.832Z,56.81
2023-03-02T11:01:23.878Z,56.40
2023-03-02T11:05:33.508Z,56.56
2023-03-02T11:09:36.464Z,55.81
2023-03-02T11:13:41.057Z,56.10
2023-03-02T11:17:46.452Z,55.78
2023-03-02T11:21:55.021Z,55.78
2023-03-02T11:26:01.789Z,55.47
2023-03-02T11:30:14.884Z,54.97
2023-03-02T11:34:40.626Z,54.23
2023-03-02T11:38:49.079Z,53.22
2023-03-02T11:42:52.434Z,54.27
2023-03-02T11:47:01.992Z,53.96
2023-03-02T11:51:07.728Z,53.35
2023-03-02T11:55:19.563Z,52.76
2023-03-02T11:59:27.514Z,52.93
2023-03-02T12:03:41.772Z,52.15
2023-03-02T12:07:46.828Z,52.81
2023-03-02T12:11:57.011Z,52.86
2023-03-02T12:16:00.627Z,52.27
2023-03-02T12:20:27.067Z,51.97
2023-03-02T12:24:32.606Z,51.97
2023-03-02T12:28:37.269Z,51.56
2023-03-02T12:32:40.259Z,51.27
2023-03-02T12:36:45.866Z,50.81
2023-03-02T12:41:01.326Z,50.03
2023-03-02T12:45:15.474Z,49.85
2023-03-02T12:49:36.370Z,49.05
2023-03-02T12:53:41.353Z,49.11
2023-03-02T12:57:49.349Z,49.08
2023-03-02T13:01:53.014Z,48.15
2023-03-02T13:06:02.725Z,47.77
2023-03-02T13:10:17.301Z,47.36
2023-03-02T13:14:23.293Z,47.36
2023-03-02T13:18:31.853Z,47.20
2023-03-02T13:22:35.106Z,46.14
2023-03-02T13:26:40.442Z,46.80
2023-03-02T13:30:47.796Z,46.89
2023-03-02T13:34:53.807Z,46.47
2023-03-02T13:39:00.334Z,46.28
2023-03-02T13:43:08.683Z,46.66
2023-03-02T13:47:23.639Z,46.37
2023-03-02T13:51:31.917Z,46.29
2023-03-02T13:55:36.026Z,46.33
2023-03-02T13:59:42.155Z,46.47
2023-03-02T14:03:45.294Z,46.28
2023-03-02T14:07:48.689Z,46.10
2023-03-02T14:11:54.351Z,45.95
2023-03-02T14:15:58.768Z,45.52
2023-03-02T14:20:01.760Z,45.83
2023-03-02T14:24:04.961Z,45.52
2023-03-02T14:28:10.181Z,45.75
2023-03-02T14:32:16.483Z,45.71
2023-03-02T14:36:24.384Z,45.35
2023-03-02T14:40:29.184Z,43.42
2023-03-02T14:44:32.464Z,44.33
2023-03-02T14:48:37.029Z,44.35
2023-03-02T14:52:44.081Z,44.30
2023-03-02T14:56:49.335Z,44.23
2023-03-02T15:00:53.532Z,44.92
2023-03-02T15:04:58.313Z,44.83
2023-03-02T15:09:02.040Z,44.39
2023-03-02T15:13:05.101Z,44.86
2023-03-02T15:17:08.299Z,44.32
2023-03-02T15:21:18.213Z,44.37
2023-03-02T15:25:23.931Z,44.34
2023-03-02T15:29:27.057Z,43.81
2023-03-02T15:33:30.020Z,43.90
2023-03-02T15:37:34.418Z,44.07
2023-03-02T15:41:37.446Z,44.30
2023-03-02T15:45:45.798Z,43.93
2023-03-02T15:49:48.791Z,44.30
2023-03-02T15:53:53.218Z,44.50
2023-03-02T15:57:58.857Z,44.45
2023-03-02T16:02:02.480Z,44.62
2023-03-02T16:06:07.320Z,44.63
2023-03-02T16:10:16.536Z,45.10
2023-03-02T16:14:19.951Z,45.23
2023-03-02T16:18:23.059Z,45.17
2023-03-02T16:22:26.275Z,45.26
2023-03-02T16:26:30.753Z,44.87
2023-03-02T16:30:35.523Z,45.37
2023-03-02T16:34:38.587Z,45.37
2023-03-02T16:38:42.179Z,45.48
2023-03-02T16:42:46.725Z,45.55
2023-03-02T16:46:49.754Z,45.92
2023-03-02T16:50:57.219Z,45.70
2023-03-02T16:55:00.254Z,46.12
2023-03-02T16:59:04.729Z,46.50
2023-03-02T17:03:07.875Z,46.60
2023-03-02T17:07:11.289Z,47.12
2023-03-02T17:11:14.261Z,47.21
2023-03-02T17:15:18.914Z,48.26
2023-03-02T17:19:21.887Z,48.05
2023-03-02T17:23:25.174Z,48.31
2023-03-02T17:27:28.568Z,48.48
2023-03-02T17:31:33.036Z,48.95
2023-03-02T17:35:36.550Z,48.95
2023-03-02T17:39:40.686Z,49.18
2023-03-02T17:43:43.794Z,48.94
2023-03-02T17:47:50.153Z,48.71
2023-03-02T17:51:53.178Z,48.74
2023-03-02T17:55:56.297Z,49.26
2023-03-02T17:59:59.311Z,49.64
2023-03-02T18:04:04.872Z,49.53
2023-03-02T18:08:08.069Z,49.41
2023-03-02T18:12:11.275Z,49.50
2023-03-02T18:16:14.697Z,49.72
2023-03-02T18:20:19.288Z,49.98
2023-03-02T18:24:22.494Z,49.90
2023-03-02T18:28:25.663Z,50.13
2023-03-02T18:32:28.900Z,50.34
2023-03-02T18:36:33.392Z,50.17
2023-03-02T18:40:36.408Z,50.34
2023-03-02T18:44:39.523Z,50.54
2023-03-02T18:48:42.489Z,51.00
2023-03-02T18:52:47.018Z,51.40
2023-03-02T18:56:49.965Z,51.55
2023-03-02T19:00:54.105Z,52.11
2023-03-02T19:04:57.140Z,52.31
2023-03-02T19:09:01.794Z,52.66
2023-03-02T19:13:05.531Z,53.06
2023-03-02T19:17:08.662Z,53.57
2023-03-02T19:21:11.609Z,53.67
2023-03-02T19:25:16.077Z,54.61
2023-03-02T19:29:19.082Z,55.02
2023-03-02T19:33:24.791Z,55.34
2023-03-02T19:37:27.759Z,55.85
2023-03-02T19:41:32.501Z,55.94
2023-03-02T19:45:36.321Z,56.33
2023-03-02T19:49:39.394Z,56.16
2023-03-02T19:53:43.574Z,56.22
2023-03-02T19:57:51.370Z,56.53
2023-03-02T20:01:56.561Z,56.35
2023-03-02T20:05:59.822Z,56.38
2023-03-02T20:10:03.049Z,56.49
2023-03-02T20:14:07.863Z,56.83
2023-03-02T20:18:13.267Z,56.83
2023-03-02T20:22:17.025Z,57.03
2023-03-02T20:26:20.206Z,57.03
2023-03-02T20:30:28.656Z,57.35
2023-03-02T20:34:31.979Z,58.08
2023-03-02T20:38:39.354Z,58.60
2023-03-02T20:42:42.418Z,58.89
2023-03-02T20:46:49.992Z,58.78
2023-03-02T20:50:53.129Z,58.74
2023-03-02T20:54:56.236Z,58.95
2023-03-02T20:58:59.292Z,59.12
2023-03-02T21:03:04.207Z,58.96
2023-03-02T21:07:07.454Z,58.99
2023-03-02T21:11:15.710Z,59.15
2023-03-02T21:15:20.199Z,58.88
2023-03-02T21:19:25.706Z,58.92
2023-03-02T21:23:29.574Z,58.83
2023-03-02T21:27:32.782Z,59.04
2023-03-02T21:31:35.882Z,58.86
2023-03-02T21:35:40.738Z,58.96
2023-03-02T21:39:43.786Z,59.16
2023-03-02T21:43:47.794Z,59.17
2023-03-02T21:47:52.089Z,59.25
2023-03-02T21:51:57.183Z,59.26
2023-03-02T21:56:02.295Z,59.49
2023-03-02T22:00:06.387Z,59.84
2023-03-02T22:04:09.448Z,60.12
2023-03-02T22:08:17.808Z,60.61
2023-03-02T22:12:23.721Z,60.68
2023-03-02T22:16:28.155Z,61.13
2023-03-02T22:20:32.328Z,61.05
2023-03-02T22:24:36.904Z,61.34
2023-03-02T22:28:41.062Z,61.08
2023-03-02T22:32:44.195Z,61.25
2023-03-02T22:36:47.229Z,61.56
2023-03-02T22:40:53.178Z,61.58
2023-03-02T22:45:03.446Z,61.57
2023-03-02T22:49:16.453Z,61.39
2023-03-02T22:53:31.061Z,61.30
2023-03-02T22:57:36.905Z,61.39
2023-03-02T23:01:43.234Z,61.49
2023-03-02T23:05:49.179Z,61.45
2023-03-02T23:09:52.244Z,61.40
2023-03-02T23:13:57.236Z,61.14
2023-03-02T23:18:00.245Z,61.41
2023-03-02T23:22:04.650Z,61.22
2023-03-02T23:26:07.654Z,61.49
2023-03-02T23:30:13.080Z,61.63
2023-03-02T23:34:16.455Z,61.63
2023-03-02T23:38:19.512Z,61.54
2023-03-02T23:42:22.501Z,61.79
2023-03-02T23:46:27.053Z,61.67
2023-03-02T23:50:30.373Z,61.70
2023-03-02T23:54:33.501Z,62.02
2023-03-02T23:58:36.554Z,61.71
